Time;durP1;ratioP1;P1;durP2;ratioP2;P2;SDS_P1;SDS_P2;PMS_P1;PMS_P2;Temp;Humidity;BMP_temperature;BMP_pressure;BME280_temperature;BME280_humidity;BME280_pressure;Samples;Min_cycle;Max_cycle;Signal;HPM_P1;HPM_P2
2022/11/07 00:02:06;;;;;;;6.83;6.63;;;10.90;1.00;;;;;;4889770;29;20474;-81
2022/11/07 00:04:35;;;;;;;6.90;6.70;;;10.90;12.00;;;;;;4894104;29;20972;-80
2022/11/07 00:07:06;;;;;;;7.00;6.80;;;11.00;48.40;;;;;;4894391;29;20496;-80
2022/11/07 00:09:34;;;;;;;7.20;7.10;;;10.90;99.90;;;;;;4892315;29;20512;-80
2022/11/07 00:12:03;;;;;;;7.23;7.03;;;10.90;1.00;;;;;;4893698;29;20471;-80
2022/11/07 00:14:31;;;;;;;7.10;7.00;;;10.90;1.00;;;;;;4893249;29;20454;-82
2022/11/07 00:16:59;;;;;;;7.30;7.10;;;10.80;99.90;;;;;;4889739;29;20588;-81
2022/11/07 00:19:28;;;;;;;7.30;7.20;;;10.80;99.90;;;;;;4886132;29;20487;-80
2022/11/07 00:21:56;;;;;;;7.80;7.60;;;10.80;1.00;;;;;;4891309;29;20465;-80
2022/11/07 00:24:26;;;;;;;7.67;7.47;;;10.80;1.00;;;;;;4888793;29;20526;-81
2022/11/07 00:26:54;;;;;;;7.40;7.30;;;10.80;99.90;;;;;;4889926;29;20586;-80
2022/11/07 00:29:22;;;;;;;7.90;7.80;;;10.70;1.00;;;;;;4890133;29;20504;-80
2022/11/07 00:31:50;;;;;;;7.83;7.73;;;10.80;99.90;;;;;;4893422;29;20563;-80
2022/11/07 00:34:18;;;;;;;8.10;7.90;;;10.80;1.00;;;;;;4886756;29;20615;-81
2022/11/07 00:36:46;;;;;;;8.37;8.17;;;10.90;99.90;;;;;;4887478;29;20489;-80
2022/11/07 00:39:15;;;;;;;8.20;8.10;;;11.00;99.90;;;;;;4888910;29;20468;-81
2022/11/07 00:41:47;;;;;;;8.20;8.00;;;11.00;29.30;;;;;;4885542;29;21034;-80
2022/11/07 00:44:15;;;;;;;8.53;8.30;;;11.00;99.90;;;;;;4884380;29;20480;-81
2022/11/07 00:46:43;;;;;;;8.80;8.50;;;11.10;29.30;;;;;;4886944;29;20922;-80
2022/11/07 00:49:12;;;;;;;8.70;8.50;;;11.00;87.60;;;;;;4885846;29;20567;-79
2022/11/07 00:51:40;;;;;;;8.50;8.30;;;11.00;90.40;;;;;;4892651;29;20465;-81
2022/11/07 00:54:08;;;;;;;9.00;8.80;;;11.00;99.90;;;;;;4886058;29;20499;-79
2022/11/07 00:56:36;;;;;;;8.90;8.70;;;11.00;1.00;;;;;;4886950;29;20517;-80
2022/11/07 00:59:05;;;;;;;9.30;9.10;;;11.00;99.90;;;;;;4886508;29;20560;-81
2022/11/07 01:01:35;;;;;;;8.77;8.57;;;11.00;99.90;;;;;;4888351;29;20456;-81
2022/11/07 01:06:49;;;;;;;8.87;8.77;;;10.90;99.90;;;;;;4890220;29;21249;-79
2022/11/07 01:09:19;;;;;;;9.70;9.40;;;10.90;99.90;;;;;;4888493;29;20548;-80
2022/11/07 01:11:48;;;;;;;9.23;9.03;;;11.00;1.00;;;;;;4890088;29;21026;-80
2022/11/07 01:14:20;;;;;;;9.30;9.10;;;10.90;1.00;;;;;;4883534;29;20527;-82
2022/11/07 01:16:49;;;;;;;9.50;9.30;;;11.00;1.00;;;;;;4884839;29;20487;-80
2022/11/07 01:19:17;;;;;;;9.70;9.50;;;11.00;99.90;;;;;;4888623;29;20468;-81
2022/11/07 01:21:45;;;;;;;10.07;9.73;;;11.10;99.90;;;;;;4888021;29;20558;-79
2022/11/07 01:24:14;;;;;;;9.60;9.40;;;11.10;1.00;;;;;;4886503;29;21218;-80
2022/11/07 01:26:46;;;;;;;9.83;9.63;;;11.10;1.00;;;;;;4886250;29;20582;-80
2022/11/07 01:29:15;;;;;;;9.87;9.50;;;11.10;99.90;;;;;;4884624;29;20463;-80
2022/11/07 01:31:45;;;;;;;10.10;9.80;;;11.10;70.60;;;;;;4882297;29;20462;-79
2022/11/07 01:34:13;;;;;;;9.97;9.57;;;11.10;1.00;;;;;;4880948;29;21025;-80
2022/11/07 01:36:41;;;;;;;9.80;9.50;;;11.10;1.00;;;;;;4881940;29;20585;-80
2022/11/07 01:39:09;;;;;;;10.10;9.80;;;11.10;99.90;;;;;;4884059;29;20521;-79
2022/11/07 01:41:38;;;;;;;10.27;9.90;;;11.10;99.90;;;;;;4884599;29;20549;-79
2022/11/07 01:44:40;;;;;;;9.43;9.13;;;11.10;99.90;;;;;;4881250;29;20578;-79
2022/11/07 01:47:10;;;;;;;9.73;9.53;;;11.10;1.00;;;;;;4883100;29;20494;-79
2022/11/07 01:49:41;;;;;;;9.63;9.43;;;11.10;1.00;;;;;;4885109;29;20561;-80
2022/11/07 01:52:13;;;;;;;10.03;9.83;;;11.00;99.90;;;;;;4884201;29;21029;-80
2022/11/07 01:54:47;;;;;;;10.00;9.70;;;11.00;1.00;;;;;;4886478;29;20504;-79
2022/11/07 01:57:20;;;;;;;9.83;9.50;;;11.10;99.90;;;;;;4881690;29;20493;-79
2022/11/07 01:59:49;;;;;;;9.40;9.20;;;11.10;99.90;;;;;;4882672;29;20464;-81
2022/11/07 02:02:19;;;;;;;9.40;9.10;;;11.10;99.90;;;;;;4887731;29;20473;-80
2022/11/07 02:04:47;;;;;;;9.17;8.97;;;11.10;99.90;;;;;;4880708;29;20467;-80
2022/11/07 02:07:19;;;;;;;9.93;9.50;;;11.10;99.90;;;;;;4901520;29;20494;-82
2022/11/07 02:09:48;;;;;;;9.53;9.13;;;11.20;36.00;;;;;;4886875;29;20545;-81
2022/11/07 02:12:17;;;;;;;9.60;9.30;;;11.20;4.60;;;;;;4883613;29;20459;-79
2022/11/07 02:14:45;;;;;;;10.00;9.60;;;11.20;1.00;;;;;;4879486;29;20961;-79
2022/11/07 02:17:14;;;;;;;9.70;9.47;;;11.20;1.00;;;;;;4881881;29;20489;-80
2022/11/07 02:19:47;;;;;;;10.10;9.80;;;11.20;1.00;;;;;;4883373;29;20481;-81
2022/11/07 02:22:25;;;;;;;9.90;9.50;;;11.30;1.00;;;;;;4885445;29;20557;-81
2022/11/07 02:24:58;;;;;;;9.50;9.30;;;11.30;1.00;;;;;;4887982;29;20506;-81
2022/11/07 02:27:29;;;;;;;9.77;9.57;;;11.30;1.00;;;;;;4884309;29;20467;-80
2022/11/07 02:30:02;;;;;;;10.20;9.90;;;11.30;1.00;;;;;;4883320;29;20471;-79
2022/11/07 02:32:30;;;;;;;10.40;9.80;;;11.30;1.00;;;;;;4880472;29;20535;-81
2022/11/07 02:35:00;;;;;;;10.00;9.70;;;11.30;1.00;;;;;;4886335;29;20469;-81
2022/11/07 02:37:30;;;;;;;9.53;9.30;;;11.30;1.00;;;;;;4880893;29;20461;-80
2022/11/07 02:40:03;;;;;;;10.07;9.87;;;11.30;1.00;;;;;;4886059;29;20468;-80
2022/11/07 02:42:43;;;;;;;10.40;10.10;;;11.30;1.00;;;;;;4887940;29;20470;-81
2022/11/07 02:45:13;;;;;;;10.10;9.90;;;11.30;1.00;;;;;;4886657;29;20589;-80
2022/11/07 02:47:41;;;;;;;9.97;9.77;;;11.20;84.00;;;;;;4888799;29;20461;-80
2022/11/07 02:50:12;;;;;;;9.93;9.73;;;11.30;1.00;;;;;;4882150;29;20497;-80
2022/11/07 02:52:41;;;;;;;10.20;10.00;;;11.30;1.00;;;;;;4886492;29;20498;-81
2022/11/07 02:55:12;;;;;;;10.20;10.00;;;11.30;1.00;;;;;;4884627;29;20478;-81
2022/11/07 02:57:40;;;;;;;11.00;10.70;;;11.40;1.00;;;;;;4888012;29;21005;-80
2022/11/07 03:00:10;;;;;;;10.43;10.13;;;11.40;1.00;;;;;;4882516;29;20882;-80
2022/11/07 03:02:39;;;;;;;9.90;9.70;;;11.30;1.00;;;;;;4886307;29;20526;-81
2022/11/07 03:05:08;;;;;;;10.20;10.00;;;11.30;1.00;;;;;;4879032;29;20502;-82
2022/11/07 03:07:36;;;;;;;10.73;10.33;;;11.30;1.00;;;;;;4885351;29;20446;-81
2022/11/07 03:10:05;;;;;;;10.20;9.90;;;11.40;1.00;;;;;;4885498;29;20462;-80
2022/11/07 03:12:34;;;;;;;10.60;10.20;;;11.30;1.00;;;;;;4888671;29;20527;-79
2022/11/07 03:15:02;;;;;;;10.33;10.03;;;11.20;99.90;;;;;;4883596;29;20889;-80
2022/11/07 03:17:30;;;;;;;9.80;9.60;;;11.20;99.90;;;;;;4883141;29;20453;-79
2022/11/07 03:19:59;;;;;;;10.17;9.90;;;11.20;99.90;;;;;;4884417;29;20562;-80
2022/11/07 03:22:27;;;;;;;10.30;10.00;;;11.20;1.00;;;;;;4885488;29;20824;-80
2022/11/07 03:24:55;;;;;;;10.10;9.90;;;11.20;99.90;;;;;;4880285;29;20831;-79
2022/11/07 03:27:23;;;;;;;10.33;9.93;;;11.10;1.00;;;;;;4883027;29;20546;-81
2022/11/07 03:29:52;;;;;;;10.30;10.00;;;11.00;1.00;;;;;;4881919;29;20558;-80
2022/11/07 03:32:21;;;;;;;10.07;9.77;;;11.10;3.30;;;;;;4881192;29;20520;-80
2022/11/07 03:34:49;;;;;;;9.93;9.73;;;11.00;1.00;;;;;;4884067;29;20498;-80
2022/11/07 03:37:18;;;;;;;10.07;9.87;;;11.00;1.00;;;;;;4885758;29;20483;-81
2022/11/07 03:39:46;;;;;;;10.03;9.73;;;11.00;1.00;;;;;;4883524;29;20451;-81
2022/11/07 03:42:14;;;;;;;10.27;10.07;;;11.00;1.00;;;;;;4879752;29;20488;-80
2022/11/07 03:44:42;;;;;;;10.60;10.20;;;11.00;1.00;;;;;;4880894;29;20495;-80
2022/11/07 03:47:11;;;;;;;10.00;9.80;;;10.90;1.00;;;;;;4883344;29;20675;-80
2022/11/07 03:49:39;;;;;;;9.90;9.70;;;11.00;1.00;;;;;;4886068;29;20495;-81
2022/11/07 03:52:08;;;;;;;9.73;9.47;;;11.00;1.00;;;;;;4887072;29;20692;-80
2022/11/07 03:54:36;;;;;;;10.50;10.13;;;11.00;1.00;;;;;;4883182;29;20465;-80
2022/11/07 03:57:04;;;;;;;9.50;9.30;;;11.00;1.00;;;;;;4882115;29;20777;-81
2022/11/07 03:59:32;;;;;;;9.80;9.50;;;11.00;1.00;;;;;;4882740;29;20503;-80
2022/11/07 04:02:00;;;;;;;9.90;9.70;;;10.90;1.00;;;;;;4884066;29;20456;-80
2022/11/07 04:04:30;;;;;;;10.00;9.70;;;11.00;99.90;;;;;;4884886;29;20458;-79
2022/11/07 04:06:58;;;;;;;10.40;10.10;;;11.00;99.90;;;;;;4884358;29;20572;-81
2022/11/07 04:09:26;;;;;;;10.00;9.80;;;11.00;1.00;;;;;;4887748;29;20454;-81
2022/11/07 04:17:26;;;;;;;10.10;9.90;;;10.90;1.00;;;;;;4893678;29;20550;-81
2022/11/07 04:19:56;;;;;;;10.57;10.27;;;11.00;1.00;;;;;;4885335;29;20466;-80
2022/11/07 04:22:25;;;;;;;11.07;10.70;;;11.00;1.00;;;;;;4891994;29;21148;-80
2022/11/07 04:24:53;;;;;;;10.20;10.00;;;10.80;99.90;;;;;;4892584;29;20458;-80
2022/11/07 04:30:19;;;;;;;10.37;9.97;;;10.90;53.70;;;;;;4888155;29;20558;-81
2022/11/07 04:32:48;;;;;;;10.20;9.80;;;10.90;35.20;;;;;;4894539;29;20494;-81
2022/11/07 04:35:19;;;;;;;10.47;10.27;;;10.80;99.90;;;;;;4886983;29;20798;-82
2022/11/07 04:37:48;;;;;;;10.50;10.20;;;10.80;99.90;;;;;;4891954;29;20542;-80
2022/11/07 04:40:17;;;;;;;10.27;9.97;;;10.80;99.90;;;;;;4889487;29;20487;-81
2022/11/07 04:42:48;;;;;;;10.70;10.40;;;10.70;99.90;;;;;;4892754;29;20458;-80
2022/11/07 04:45:17;;;;;;;10.70;10.20;;;10.80;1.00;;;;;;4887922;29;20505;-80
2022/11/07 04:47:46;;;;;;;10.60;10.30;;;10.70;1.00;;;;;;4890611;29;20467;-80
2022/11/07 04:50:17;;;;;;;10.73;10.27;;;10.70;1.00;;;;;;4892484;29;20495;-81
2022/11/07 04:52:46;;;;;;;10.70;10.20;;;10.80;99.90;;;;;;4889245;29;20503;-80
2022/11/07 04:55:20;;;;;;;10.30;10.10;;;10.70;99.90;;;;;;4891203;29;20453;-80
2022/11/07 04:57:48;;;;;;;10.20;9.90;;;10.80;99.90;;;;;;4888456;29;20530;-82
2022/11/07 05:00:20;;;;;;;10.40;9.93;;;10.70;99.90;;;;;;4887628;29;20460;-79
2022/11/07 05:02:48;;;;;;;10.00;9.67;;;10.70;99.90;;;;;;4882657;29;20493;-79
2022/11/07 05:05:18;;;;;;;10.33;10.03;;;10.70;1.00;;;;;;4884354;29;20468;-81
2022/11/07 05:07:47;;;;;;;11.00;10.60;;;10.80;99.90;;;;;;4885729;29;20569;-81
2022/11/07 05:10:19;;;;;;;11.03;10.70;;;10.80;99.90;;;;;;4889023;29;21351;-81
2022/11/07 05:12:47;;;;;;;11.00;10.70;;;10.80;1.00;;;;;;4887736;29;20518;-81
2022/11/07 05:15:15;;;;;;;11.37;10.83;;;10.80;99.90;;;;;;4884762;29;20506;-80
2022/11/07 05:17:44;;;;;;;11.20;10.73;;;10.70;99.90;;;;;;4885139;29;20608;-79
2022/11/07 05:20:27;;;;;;;11.40;10.90;;;10.80;99.90;;;;;;4883862;29;20573;-79
2022/11/07 05:25:44;;;;;;;11.20;10.80;;;10.90;99.90;;;;;;4881804;29;20490;-80
2022/11/07 05:28:13;;;;;;;12.03;11.53;;;11.00;99.90;;;;;;4883772;29;20455;-79
2022/11/07 05:30:42;;;;;;;11.10;10.73;;;11.00;99.90;;;;;;4890945;29;20473;-79
2022/11/07 05:33:12;;;;;;;11.30;10.87;;;11.00;1.00;;;;;;4882618;29;20539;-79
2022/11/07 05:35:43;;;;;;;11.37;11.07;;;11.00;99.90;;;;;;4880566;29;20479;-80
2022/11/07 05:38:11;;;;;;;11.67;11.17;;;11.00;93.10;;;;;;4886766;29;20722;-81
2022/11/07 05:40:41;;;;;;;12.40;11.90;;;11.00;48.70;;;;;;4889320;29;20498;-81
2022/11/07 05:43:12;;;;;;;11.63;11.23;;;11.10;1.00;;;;;;4889172;29;20455;-80
2022/11/07 05:45:41;;;;;;;11.50;11.20;;;11.00;99.90;;;;;;4886905;29;20500;-82
2022/11/07 05:48:11;;;;;;;12.93;12.50;;;11.10;60.70;;;;;;4887337;29;20573;-82
2022/11/07 05:50:40;;;;;;;12.10;11.70;;;11.10;39.60;;;;;;4887827;29;20504;-80
2022/11/07 05:53:09;;;;;;;11.90;11.50;;;11.20;1.00;;;;;;4887605;29;20587;-81
2022/11/07 05:55:38;;;;;;;12.50;12.10;;;11.10;1.00;;;;;;4887762;29;20493;-81
2022/11/07 05:58:11;;;;;;;12.80;12.50;;;11.10;1.00;;;;;;4885777;29;20956;-81
2022/11/07 06:00:39;;;;;;;15.17;14.47;;;11.20;99.90;;;;;;4885975;29;20546;-79
2022/11/07 06:03:08;;;;;;;12.60;12.20;;;11.10;99.90;;;;;;4881826;29;20499;-83
2022/11/07 06:05:37;;;;;;;12.50;12.20;;;11.20;1.00;;;;;;4882516;29;21002;-83
2022/11/07 06:08:06;;;;;;;13.17;12.67;;;11.20;1.00;;;;;;4882278;29;21001;-82
2022/11/07 06:10:36;;;;;;;12.90;12.50;;;11.20;99.90;;;;;;4894546;29;20509;-83
2022/11/07 06:13:06;;;;;;;12.43;11.87;;;11.20;1.00;;;;;;4885036;29;20498;-81
2022/11/07 06:15:36;;;;;;;12.23;11.93;;;11.20;99.90;;;;;;4892060;29;20584;-81
2022/11/07 06:18:06;;;;;;;13.80;13.07;;;11.20;1.00;;;;;;4883148;29;21169;-80
2022/11/07 06:20:35;;;;;;;12.70;12.20;;;11.20;18.20;;;;;;4888129;29;20476;-81
2022/11/07 06:23:05;;;;;;;12.13;11.73;;;11.20;99.90;;;;;;4885687;29;20486;-82
2022/11/07 06:25:35;;;;;;;12.17;11.77;;;11.30;1.00;;;;;;4886232;29;20545;-80
2022/11/07 06:28:05;;;;;;;12.73;12.33;;;11.30;1.00;;;;;;4886608;29;20471;-81
2022/11/07 06:30:34;;;;;;;12.87;12.47;;;11.30;1.00;;;;;;4882650;29;20466;-80
2022/11/07 06:33:03;;;;;;;13.13;12.47;;;11.40;99.90;;;;;;4885062;29;20523;-81
2022/11/07 06:35:31;;;;;;;13.50;12.70;;;11.40;1.00;;;;;;4886267;29;20530;-81
2022/11/07 06:38:02;;;;;;;13.57;12.97;;;11.40;99.90;;;;;;4885456;29;20498;-81
2022/11/07 06:40:30;;;;;;;13.23;12.67;;;11.40;99.90;;;;;;4885204;29;20517;-81
2022/11/07 06:43:07;;;;;;;13.07;12.67;;;11.40;99.90;;;;;;4885565;29;21324;-80
2022/11/07 06:45:35;;;;;;;13.30;12.90;;;11.40;99.90;;;;;;4880751;29;20490;-81
2022/11/07 06:48:04;;;;;;;12.93;12.50;;;11.40;1.00;;;;;;4879689;29;20825;-81
2022/11/07 06:50:32;;;;;;;14.23;13.50;;;11.50;99.90;;;;;;4888799;29;20455;-81
2022/11/07 06:53:04;;;;;;;13.80;13.30;;;11.50;99.90;;;;;;4887572;29;20483;-81
2022/11/07 06:55:34;;;;;;;13.37;12.97;;;11.50;1.00;;;;;;4885294;29;20493;-81
2022/11/07 06:58:02;;;;;;;14.17;13.57;;;11.60;1.00;;;;;;4884846;29;20482;-81
2022/11/07 07:00:33;;;;;;;13.90;13.50;;;11.50;99.90;;;;;;4884049;29;20470;-82
2022/11/07 07:03:02;;;;;;;13.70;13.20;;;11.60;99.90;;;;;;4884307;29;20458;-82
2022/11/07 07:05:30;;;;;;;13.37;12.93;;;11.60;1.00;;;;;;4881256;29;20497;-82
2022/11/07 07:07:58;;;;;;;13.77;13.00;;;11.60;99.90;;;;;;4882315;29;20522;-81
2022/11/07 07:10:26;;;;;;;14.20;13.80;;;11.60;99.90;;;;;;4882389;29;20457;-82
2022/11/07 07:12:55;;;;;;;13.23;12.73;;;11.70;99.90;;;;;;4883701;29;20577;-82
2022/11/07 07:15:23;;;;;;;13.70;13.20;;;11.70;99.90;;;;;;4885387;29;20533;-80
2022/11/07 07:17:53;;;;;;;14.90;14.10;;;11.70;20.20;;;;;;4884719;29;20476;-81
2022/11/07 07:20:21;;;;;;;14.00;13.30;;;11.70;1.00;;;;;;4883559;29;20539;-81
2022/11/07 07:22:49;;;;;;;14.00;13.50;;;11.60;99.90;;;;;;4883735;29;20465;-80
2022/11/07 07:25:27;;;;;;;13.33;12.83;;;11.60;99.90;;;;;;4884722;29;20490;-81
2022/11/07 07:27:55;;;;;;;13.40;13.00;;;11.60;99.90;;;;;;4884294;29;20466;-79
2022/11/07 07:30:23;;;;;;;13.53;13.03;;;11.60;99.90;;;;;;4884394;29;20471;-81
2022/11/07 07:32:54;;;;;;;13.30;12.90;;;11.60;99.90;;;;;;4885741;29;20477;-81
2022/11/07 07:35:22;;;;;;;13.03;12.53;;;11.70;1.00;;;;;;4883412;29;20462;-81
2022/11/07 07:37:51;;;;;;;13.67;13.10;;;11.70;1.00;;;;;;4884461;29;20466;-81
2022/11/07 07:40:20;;;;;;;14.13;13.40;;;11.80;1.00;;;;;;4887459;29;20523;-82
2022/11/07 07:42:48;;;;;;;14.67;14.03;;;11.80;1.00;;;;;;4884340;29;20466;-81
2022/11/07 07:45:17;;;;;;;13.10;12.60;;;11.80;99.90;;;;;;4887372;29;20467;-81
2022/11/07 07:47:45;;;;;;;13.77;13.33;;;11.90;99.90;;;;;;4888247;29;20466;-82
2022/11/07 07:50:15;;;;;;;13.50;12.90;;;11.90;99.90;;;;;;4886634;29;20463;-80
2022/11/07 07:52:43;;;;;;;12.87;12.37;;;12.00;1.00;;;;;;4884311;29;20525;-80
2022/11/07 07:55:11;;;;;;;13.47;12.87;;;12.00;1.00;;;;;;4883625;29;20467;-80
2022/11/07 07:57:40;;;;;;;13.23;12.50;;;12.10;1.00;;;;;;4879244;29;20467;-78
2022/11/07 08:00:10;;;;;;;13.20;12.70;;;12.10;1.00;;;;;;4880279;29;20519;-77
2022/11/07 08:02:42;;;;;;;13.53;13.20;;;12.10;99.90;;;;;;4884526;29;20455;-78
2022/11/07 08:05:11;;;;;;;12.93;12.53;;;12.10;99.90;;;;;;4881567;29;20467;-80
2022/11/07 08:07:51;;;;;;;13.60;13.10;;;12.20;1.00;;;;;;4879834;29;20455;-78
2022/11/07 08:10:20;;;;;;;13.60;13.20;;;12.10;1.00;;;;;;4885519;29;20548;-80
2022/11/07 08:13:08;;;;;;;13.90;13.10;;;12.10;1.00;;;;;;4874774;29;20499;-81
2022/11/07 08:15:36;;;;;;;13.70;13.07;;;12.00;1.00;;;;;;4882725;29;20609;-81
2022/11/07 08:18:05;;;;;;;13.60;12.70;;;12.00;1.00;;;;;;4883562;29;20466;-80
2022/11/07 08:20:34;;;;;;;14.03;13.03;;;12.00;1.00;;;;;;4884878;29;20466;-81
2022/11/07 08:23:05;;;;;;;13.10;12.70;;;12.00;1.00;;;;;;4888384;29;21005;-81
2022/11/07 08:25:42;;;;;;;13.30;12.67;;;12.00;1.00;;;;;;4891394;29;20486;-82
2022/11/07 08:28:11;;;;;;;14.13;13.53;;;12.00;1.00;;;;;;4885719;29;20461;-80
2022/11/07 08:30:40;;;;;;;12.60;11.90;;;12.00;1.00;;;;;;4889096;29;20467;-81
2022/11/07 08:33:08;;;;;;;13.10;12.70;;;12.00;99.90;;;;;;4893347;29;20519;-81
2022/11/07 08:35:36;;;;;;;13.23;12.73;;;12.10;99.90;;;;;;4893915;29;20559;-81
2022/11/07 08:38:11;;;;;;;13.27;12.73;;;12.10;99.90;;;;;;4888036;29;20462;-80
2022/11/07 08:40:39;;;;;;;13.10;12.50;;;12.10;99.90;;;;;;4891628;29;20512;-80
2022/11/07 08:43:07;;;;;;;12.37;11.83;;;12.10;99.90;;;;;;4884650;29;20460;-80
2022/11/07 08:45:36;;;;;;;11.77;11.20;;;12.20;99.90;;;;;;4887155;29;22404;-78
2022/11/07 08:48:04;;;;;;;12.23;11.77;;;12.20;99.90;;;;;;4894937;29;20459;-80
2022/11/07 08:50:32;;;;;;;12.03;11.63;;;12.10;99.90;;;;;;4885299;29;20479;-79
2022/11/07 08:53:01;;;;;;;11.60;11.20;;;12.20;98.50;;;;;;4888803;29;20465;-80
2022/11/07 08:55:32;;;;;;;12.00;11.50;;;12.30;5.30;;;;;;4889444;29;20561;-80
2022/11/07 08:58:01;;;;;;;12.57;11.83;;;12.40;1.00;;;;;;4890802;29;20472;-80
2022/11/07 09:00:30;;;;;;;11.77;11.20;;;12.50;1.00;;;;;;4896230;29;20462;-80
2022/11/07 09:03:01;;;;;;;12.10;11.60;;;12.50;1.00;;;;;;4889060;29;20511;-80
2022/11/07 09:05:50;;;;;;;11.67;11.27;;;12.50;1.00;;;;;;4891015;29;20486;-81
2022/11/07 09:08:18;;;;;;;12.30;11.80;;;12.60;1.00;;;;;;4895358;29;20500;-81
2022/11/07 09:10:47;;;;;;;12.77;12.17;;;12.70;99.90;;;;;;4892745;29;20946;-81
2022/11/07 09:13:16;;;;;;;12.27;11.60;;;12.80;99.90;;;;;;4893658;29;20948;-79
2022/11/07 09:15:45;;;;;;;12.70;12.10;;;12.80;99.90;;;;;;4899246;29;20479;-79
2022/11/07 09:18:19;;;;;;;12.37;11.97;;;13.00;99.90;;;;;;4887344;29;20458;-80
2022/11/07 09:20:47;;;;;;;12.70;12.10;;;12.90;99.90;;;;;;4887663;29;20451;-79
2022/11/07 09:23:16;;;;;;;13.30;12.60;;;13.00;99.90;;;;;;4892261;29;20464;-81
2022/11/07 09:25:45;;;;;;;14.17;13.50;;;13.10;99.90;;;;;;4889421;29;20482;-81
2022/11/07 09:28:15;;;;;;;13.73;13.00;;;13.60;99.90;;;;;;4886946;29;20472;-81
2022/11/07 09:30:44;;;;;;;13.40;12.80;;;13.80;99.90;;;;;;4887527;29;20467;-80
2022/11/07 09:33:12;;;;;;;12.73;12.23;;;13.60;93.10;;;;;;4885384;29;20471;-80
2022/11/07 09:35:41;;;;;;;11.90;11.60;;;13.40;99.90;;;;;;4888195;29;20483;-81
2022/11/07 09:38:09;;;;;;;12.70;12.00;;;13.30;99.90;;;;;;4886163;29;20878;-81
2022/11/07 09:40:48;;;;;;;12.43;12.00;;;13.30;99.90;;;;;;4886341;29;20455;-80
2022/11/07 09:43:42;;;;;;;12.90;12.20;;;13.10;99.90;;;;;;4883625;29;20449;-82
2022/11/07 09:46:27;;;;;;;13.80;13.10;;;13.10;99.90;;;;;;4884811;29;20490;-80
2022/11/07 09:49:01;;;;;;;14.43;13.47;;;13.10;99.90;;;;;;4884346;29;20465;-79
2022/11/07 09:51:37;;;;;;;12.93;12.40;;;13.00;99.90;;;;;;4884399;29;20493;-82
2022/11/07 09:54:11;;;;;;;13.23;12.83;;;12.90;99.90;;;;;;4883003;29;20498;-81
2022/11/07 09:56:42;;;;;;;13.23;12.30;;;12.90;99.90;;;;;;4891496;29;20562;-81
2022/11/07 09:59:20;;;;;;;13.00;12.60;;;12.90;99.90;;;;;;4885382;29;20466;-79
2022/11/07 10:01:48;;;;;;;13.90;13.30;;;13.00;99.90;;;;;;4885107;29;21036;-81
2022/11/07 10:04:19;;;;;;;14.17;13.30;;;12.90;99.90;;;;;;4887704;29;20463;-81
2022/11/07 10:07:00;;;;;;;13.70;13.00;;;12.90;99.90;;;;;;4886419;29;20483;-80
2022/11/07 10:09:39;;;;;;;12.90;12.57;;;12.90;99.90;;;;;;4885325;29;20990;-80
2022/11/07 10:12:22;;;;;;;14.17;13.57;;;12.90;99.90;;;;;;4886027;29;20467;-80
2022/11/07 10:15:02;;;;;;;12.40;11.90;;;12.90;99.90;;;;;;4896213;29;20484;-80
2022/11/07 10:17:42;;;;;;;13.37;12.87;;;12.90;99.90;;;;;;4886734;29;20522;-80
2022/11/07 10:20:26;;;;;;;12.70;12.30;;;12.90;99.90;;;;;;4884516;29;20456;-81
2022/11/07 10:23:08;;;;;;;12.93;12.50;;;12.90;99.90;;;;;;4884519;29;20462;-81
2022/11/07 10:25:42;;;;;;;13.10;12.50;;;12.90;99.90;;;;;;4885166;29;20486;-83
2022/11/07 10:28:14;;;;;;;13.77;13.17;;;13.00;99.90;;;;;;4884704;29;20460;-82
2022/11/07 10:30:48;;;;;;;14.63;14.00;;;13.00;99.90;;;;;;4886750;29;20466;-81
2022/11/07 10:33:36;;;;;;;13.23;12.83;;;13.40;99.90;;;;;;4896678;29;20588;-81
2022/11/07 10:36:12;;;;;;;13.33;12.50;;;13.90;98.70;;;;;;4883597;29;22065;-81
2022/11/07 10:38:42;;;;;;;13.00;12.60;;;13.60;58.20;;;;;;4884244;29;20869;-83
2022/11/07 10:41:19;;;;;;;12.17;11.70;;;13.50;59.70;;;;;;4882276;29;20598;-83
2022/11/07 10:43:51;;;;;;;12.43;11.83;;;13.40;39.80;;;;;;4885062;29;20463;-81
2022/11/07 10:46:25;;;;;;;11.87;11.30;;;13.40;68.90;;;;;;4876308;29;20609;-82
2022/11/07 10:48:56;;;;;;;12.00;11.40;;;13.50;63.90;;;;;;4892630;29;20912;-84
2022/11/07 10:51:34;;;;;;;10.90;10.60;;;13.50;40.60;;;;;;4878372;29;20531;-82
2022/11/07 10:54:03;;;;;;;11.57;11.10;;;13.50;25.70;;;;;;4883872;29;20470;-81
2022/11/07 10:56:42;;;;;;;11.90;11.50;;;13.50;24.70;;;;;;4884763;29;20473;-82
2022/11/07 10:59:13;;;;;;;11.20;10.90;;;13.60;3.90;;;;;;4885784;29;20544;-82
2022/11/07 11:01:49;;;;;;;11.67;11.17;;;13.60;1.00;;;;;;4885706;29;21027;-81
2022/11/07 11:04:21;;;;;;;11.00;10.60;;;13.60;1.00;;;;;;4884079;29;20455;-82
2022/11/07 11:06:57;;;;;;;11.13;10.73;;;13.50;1.00;;;;;;4888568;29;20477;-83
2022/11/07 11:09:31;;;;;;;11.50;11.00;;;13.60;1.00;;;;;;4890322;29;20888;-82
2022/11/07 11:12:04;;;;;;;11.73;11.40;;;13.60;1.00;;;;;;4879419;29;20536;-79
2022/11/07 11:14:32;;;;;;;11.90;11.40;;;13.90;1.00;;;;;;4875639;29;21087;-79
2022/11/07 11:17:02;;;;;;;11.03;10.83;;;14.10;1.00;;;;;;4877733;29;20516;-79
2022/11/07 11:19:39;;;;;;;11.55;11.05;;;14.30;1.00;;;;;;4881984;29;20479;-81
2022/11/07 11:22:16;;;;;;;10.70;10.43;;;14.30;1.00;;;;;;4887247;29;20518;-82
2022/11/07 11:24:44;;;;;;;10.93;10.47;;;14.40;1.00;;;;;;4883623;29;20528;-82
2022/11/07 11:27:15;;;;;;;10.40;10.00;;;14.40;1.00;;;;;;4884780;29;21349;-84
2022/11/07 11:29:50;;;;;;;12.10;11.07;;;14.30;1.00;;;;;;4885128;29;20965;-80
2022/11/07 11:32:25;;;;;;;10.87;10.47;;;14.30;1.00;;;;;;4889384;29;20496;-82
2022/11/07 11:35:04;;;;;;;11.13;10.77;;;14.30;1.00;;;;;;4886111;29;20542;-81
2022/11/07 11:37:36;;;;;;;9.80;9.50;;;14.30;1.00;;;;;;4890666;29;21164;-83
2022/11/07 11:40:18;;;;;;;10.07;9.87;;;14.20;1.00;;;;;;4885607;29;20902;-82
2022/11/07 11:42:52;;;;;;;10.20;9.70;;;14.10;1.00;;;;;;4888877;29;20488;-82
2022/11/07 11:45:30;;;;;;;10.47;10.13;;;14.10;1.00;;;;;;4888273;29;20469;-84
2022/11/07 11:48:12;;;;;;;10.30;10.00;;;14.20;1.00;;;;;;4885907;29;20955;-83
2022/11/07 11:50:45;;;;;;;10.30;9.90;;;14.40;1.00;;;;;;4887117;29;20472;-82
2022/11/07 11:53:18;;;;;;;9.80;9.40;;;14.40;1.00;;;;;;4891258;29;20452;-83
2022/11/07 11:55:56;;;;;;;9.27;8.90;;;14.30;1.00;;;;;;4887779;29;20520;-83
2022/11/07 11:58:36;;;;;;;9.93;9.20;;;14.20;1.00;;;;;;4883052;29;20767;-83
2022/11/07 12:01:14;;;;;;;9.50;9.00;;;14.10;1.00;;;;;;4887048;29;20722;-82
2022/11/07 12:04:01;;;;;;;9.80;9.30;;;14.00;1.00;;;;;;4887908;29;20522;-83
2022/11/07 12:06:38;;;;;;;10.33;9.67;;;14.10;1.00;;;;;;4885645;29;20486;-83
2022/11/07 12:09:22;;;;;;;9.10;8.80;;;14.40;1.00;;;;;;4885340;29;20879;-81
2022/11/07 12:12:08;;;;;;;8.93;8.53;;;14.50;1.00;;;;;;4890722;29;20465;-81
2022/11/07 12:15:11;;;;;;;9.87;9.47;;;14.70;1.00;;;;;;4892463;29;20488;-82
2022/11/07 12:17:48;;;;;;;9.13;8.83;;;15.00;1.00;;;;;;4893826;29;20507;-82
2022/11/07 12:20:24;;;;;;;8.97;8.57;;;15.20;1.00;;;;;;4886236;29;20521;-84
2022/11/07 12:23:17;;;;;;;10.00;9.50;;;15.40;1.00;;;;;;4902468;29;20473;-83
2022/11/07 12:25:53;;;;;;;9.53;9.23;;;15.50;1.00;;;;;;4889927;29;21139;-81
2022/11/07 12:28:35;;;;;;;9.13;8.83;;;15.60;99.90;;;;;;4889578;29;20458;-84
2022/11/07 12:31:29;;;;;;;8.50;8.00;;;15.60;99.90;;;;;;4889109;29;20565;-80
2022/11/07 12:34:10;;;;;;;7.30;7.10;;;15.60;99.90;;;;;;4889408;29;20482;-81
2022/11/07 12:36:52;;;;;;;8.00;7.60;;;15.60;99.90;;;;;;4886301;29;20492;-82
2022/11/07 12:39:36;;;;;;;7.87;7.67;;;15.60;99.90;;;;;;4890197;29;20457;-81
2022/11/07 12:42:08;;;;;;;7.47;7.23;;;15.70;99.90;;;;;;4893637;29;20471;-81
2022/11/07 12:44:55;;;;;;;7.47;7.13;;;15.60;99.90;;;;;;4889211;29;20513;-81
2022/11/07 12:47:43;;;;;;;6.83;6.63;;;15.40;99.90;;;;;;4888943;29;20556;-82
2022/11/07 12:50:28;;;;;;;7.27;7.00;;;15.20;99.90;;;;;;4888869;29;20459;-82
2022/11/07 12:53:13;;;;;;;7.43;7.23;;;15.20;99.90;;;;;;4886202;29;20473;-82
2022/11/07 12:55:48;;;;;;;7.63;7.43;;;15.10;99.90;;;;;;4888462;29;20488;-82
2022/11/07 12:58:22;;;;;;;7.73;7.20;;;15.00;99.90;;;;;;4889724;29;20457;-82
2022/11/07 13:00:51;;;;;;;6.80;6.50;;;14.90;99.90;;;;;;4894212;29;21294;-82
2022/11/07 13:03:48;;;;;;;7.00;6.80;;;14.80;99.90;;;;;;4893756;29;20454;-84
2022/11/07 13:06:25;;;;;;;7.53;7.10;;;14.70;99.90;;;;;;4892460;29;20487;-82
2022/11/07 13:09:06;;;;;;;7.60;7.10;;;14.70;99.90;;;;;;4887131;29;20490;-81
2022/11/07 13:11:42;;;;;;;6.70;6.47;;;14.70;99.90;;;;;;4891208;29;20453;-81
2022/11/07 13:14:32;;;;;;;7.20;6.90;;;14.70;99.90;;;;;;4891040;29;20468;-82
2022/11/07 13:17:16;;;;;;;6.73;6.50;;;14.70;99.90;;;;;;4889056;29;20498;-82